Time;durP1;ratioP1;P1;durP2;ratioP2;P2;SDS_P1;SDS_P2;PMS_P1;PMS_P2;Temp;Humidity;BMP_temperature;BMP_pressure;BME280_temperature;BME280_humidity;BME280_pressure;Samples;Min_cycle;Max_cycle;Signal;HPM_P1;HPM_P2
2022/04/27 00:00:25;;;;;;;;;;;;;;;;;;5045988;28;1222;-80
2022/04/27 00:02:51;;;;;;;;;;;;;;;;;;5051852;28;1136;-81
2022/04/27 00:05:17;;;;;;;;;;;;;;;;;;5049284;28;1173;-82
2022/04/27 00:07:42;;;;;;;;;;;;;;;;;;5059001;28;1282;-81
2022/04/27 00:10:08;;;;;;;;;;;;;;;;;;5050800;28;1914;-81
2022/04/27 00:12:37;;;;;;;;;;;;;;;;;;5053015;28;1156;-81
2022/04/27 00:15:03;;;;;;;;;;;;;;;;;;5051325;28;1152;-81
2022/04/27 00:17:28;;;;;;;;;;;;;;;;;;5065146;28;1330;-82
2022/04/27 00:19:53;;;;;;;;;;;;;;;;;;5060561;28;1207;-81
2022/04/27 00:22:19;;;;;;;;;;;;;;;;;;5051829;28;1164;-81
2022/04/27 00:24:44;;;;;;;;;;;;;;;;;;5058029;28;1297;-82
2022/04/27 00:27:10;;;;;;;;;;;;;;;;;;5063467;28;1140;-81
2022/04/27 00:29:35;;;;;;;;;;;;;;;;;;5052203;28;2007;-81
2022/04/27 00:32:01;;;;;;;;;;;;;;;;;;5080400;28;1198;-81
2022/04/27 00:34:28;;;;;;;;;;;;;;;;;;5062103;28;1169;-80
2022/04/27 00:36:54;;;;;;;;;;;;;;;;;;5041563;28;1434;-81
2022/04/27 00:39:19;;;;;;;;;;;;;;;;;;5043788;28;1316;-82
2022/04/27 00:42:00;;;;;;;;;;;;;;;;;;5072593;28;1171;-80
2022/04/27 00:44:30;;;;;;;;;;;;;;;;;;5054121;28;1288;-81
2022/04/27 00:46:55;;;;;;;;;;;;;;;;;;5056672;28;1249;-81
2022/04/27 00:49:21;;;;;;;;;;;;;;;;;;5045541;28;1902;-81
2022/04/27 00:51:47;;;;;;;;;;;;;;;;;;5051305;28;1331;-82
2022/04/27 00:54:12;;;;;;;;;;;;;;;;;;5093114;28;1167;-82
2022/04/27 00:56:39;;;;;;;;;;;;;;;;;;5063790;28;1160;-82
2022/04/27 00:59:07;;;;;;;;;;;;;;;;;;5060131;28;1724;-82
2022/04/27 01:01:33;;;;;;;;;;;;;;;;;;5063888;28;1330;-82
2022/04/27 01:03:58;;;;;;;;;;;;;;;;;;5064438;28;1228;-82
2022/04/27 01:06:24;;;;;;;;;;;;;;;;;;5057102;28;1185;-82
2022/04/27 01:08:49;;;;;;;;;;;;;;;;;;5065876;28;1164;-82
2022/04/27 01:11:15;;;;;;;;;;;;;;;;;;5065572;28;1882;-81
2022/04/27 01:13:40;;;;;;;;;;;;;;;;;;5047038;28;1229;-82
2022/04/27 01:16:06;;;;;;;;;;;;;;;;;;5058724;28;1220;-82
2022/04/27 01:18:32;;;;;;;;;;;;;;;;;;5047227;28;1341;-82
2022/04/27 01:20:57;;;;;;;;;;;;;;;;;;5043699;28;1190;-82
2022/04/27 01:23:23;;;;;;;;;;;;;;;;;;5079443;28;1190;-81
2022/04/27 01:25:55;;;;;;;;;;;;;;;;;;5043569;28;1307;-82
2022/04/27 01:28:25;;;;;;;;;;;;;;;;;;5044595;28;1313;-81
2022/04/27 01:30:57;;;;;;;;;;;;;;;;;;5052711;28;1957;-81
2022/04/27 01:33:22;;;;;;;;;;;;;;;;;;5061507;28;1103;-81
2022/04/27 01:35:48;;;;;;;;;;;;;;;;;;5052027;28;1108;-81
2022/04/27 01:38:14;;;;;;;;;;;;;;;;;;5070652;28;1452;-81
2022/04/27 01:40:40;;;;;;;;;;;;;;;;;;5045597;28;1112;-81
2022/04/27 01:43:16;;;;;;;;;;;;;;;;;;;;;
2022/04/27 01:45:42;;;;;;;;;;;;;;;;;;5054217;28;1121;-81
2022/04/27 01:48:09;;;;;;;;;;;;;;;;;;5066531;28;1469;-80
2022/04/27 01:50:34;;;;;;;;;;;;;;;;;;5062418;28;1957;-81
2022/04/27 01:55:44;;;;;;;;;;;;;;;;;;5075274;28;1118;-80
2022/04/27 01:58:10;;;;;;;;;;;;;;;;;;5064887;28;1145;-81
2022/04/27 02:00:35;;;;;;;;;;;;;;;;;;5033373;28;1145;-81
2022/04/27 02:03:00;;;;;;;;;;;;;;;;;;5097887;28;1151;-81
2022/04/27 02:05:26;;;;;;;;;;;;;;;;;;5060726;28;1290;-81
2022/04/27 02:07:51;;;;;;;;;;;;;;;;;;5067550;28;1184;-80
2022/04/27 02:10:20;;;;;;;;;;;;;;;;;;5040683;28;1902;-80
2022/04/27 02:12:46;;;;;;;;;;;;;;;;;;5048072;28;1330;-81
2022/04/27 02:15:11;;;;;;;;;;;;;;;;;;5092179;28;1139;-81
2022/04/27 02:17:37;;;;;;;;;;;;;;;;;;5068016;28;1317;-81
2022/04/27 02:20:04;;;;;;;;;;;;;;;;;;5055277;28;1232;-81
2022/04/27 02:22:31;;;;;;;;;;;;;;;;;;5065432;28;1180;-81
2022/04/27 02:24:56;;;;;;;;;;;;;;;;;;5065839;28;1348;-80
2022/04/27 02:27:21;;;;;;;;;;;;;;;;;;5048220;28;1416;-81
2022/04/27 02:29:47;;;;;;;;;;;;;;;;;;5046425;28;1914;-81
2022/04/27 02:32:15;;;;;;;;;;;;;;;;;;5046134;28;1278;-80
2022/04/27 02:34:40;;;;;;;;;;;;;;;;;;5043512;28;1277;-80
2022/04/27 02:37:06;;;;;;;;;;;;;;;;;;5052088;28;1197;-81
2022/04/27 02:39:31;;;;;;;;;;;;;;;;;;5070411;28;1510;-81
2022/04/27 02:41:56;;;;;;;;;;;;;;;;;;5053297;28;1211;-81
2022/04/27 02:44:21;;;;;;;;;;;;;;;;;;5042159;28;1314;-81
2022/04/27 02:46:46;;;;;;;;;;;;;;;;;;5047185;28;1157;-81
2022/04/27 02:51:56;;;;;;;;;;;;;;;;;;5061441;28;1078;-81
2022/04/27 02:54:22;;;;;;;;;;;;;;;;;;5049346;28;1196;-81
2022/04/27 02:56:48;;;;;;;;;;;;;;;;;;5065765;28;1124;-81
2022/04/27 02:59:14;;;;;;;;;;;;;;;;;;5032409;28;1279;-80
2022/04/27 03:01:39;;;;;;;;;;;;;;;;;;5063012;28;1275;-81
2022/04/27 03:04:05;;;;;;;;;;;;;;;;;;5043953;28;1167;-80
2022/04/27 03:06:30;;;;;;;;;;;;;;;;;;5047591;28;1211;-81
2022/04/27 03:08:56;;;;;;;;;;;;;;;;;;5063274;28;1196;-81
2022/04/27 03:11:21;;;;;;;;;;;;;;;;;;5048457;28;1959;-81
2022/04/27 03:13:46;;;;;;;;;;;;;;;;;;5065363;28;1195;-80
2022/04/27 03:16:11;;;;;;;;;;;;;;;;;;5065272;28;1227;-80
2022/04/27 03:18:37;;;;;;;;;;;;;;;;;;5062315;28;1052;-80
2022/04/27 03:21:03;;;;;;;;;;;;;;;;;;5056843;28;1235;-81
2022/04/27 03:23:29;;;;;;;;;;;;;;;;;;5064198;28;1198;-81
2022/04/27 03:25:55;;;;;;;;;;;;;;;;;;5058544;28;1270;-81
2022/04/27 03:28:21;;;;;;;;;;;;;;;;;;5045068;28;1431;-80
2022/04/27 03:30:48;;;;;;;;;;;;;;;;;;5051909;28;1906;-81
2022/04/27 03:33:13;;;;;;;;;;;;;;;;;;5049947;28;1184;-81
2022/04/27 03:35:38;;;;;;;;;;;;;;;;;;5071549;28;1313;-83
2022/04/27 03:38:04;;;;;;;;;;;;;;;;;;5075350;28;1256;-81
2022/04/27 03:40:30;;;;;;;;;;;;;;;;;;5083015;28;1144;-81
2022/04/27 03:42:55;;;;;;;;;;;;;;;;;;5065679;28;1137;-81
2022/04/27 03:45:21;;;;;;;;;;;;;;;;;;5028479;28;1369;-81
2022/04/27 03:47:47;;;;;;;;;;;;;;;;;;5046381;28;1172;-81
2022/04/27 03:50:12;;;;;;;;;;;;;;;;;;5069236;28;1894;-81
2022/04/27 03:52:37;;;;;;;;;;;;;;;;;;5054064;28;1195;-81
2022/04/27 03:55:02;;;;;;;;;;;;;;;;;;5051306;28;1165;-81
2022/04/27 03:57:28;;;;;;;;;;;;;;;;;;5062082;28;1379;-81
2022/04/27 03:59:53;;;;;;;;;;;;;;;;;;5063038;28;1216;-81
2022/04/27 04:02:20;;;;;;;;;;;;;;;;;;5065795;28;1164;-81
2022/04/27 04:04:45;;;;;;;;;;;;;;;;;;5061380;28;1243;-81
2022/04/27 04:07:12;;;;;;;;;;;;;;;;;;5066744;28;1169;-81
2022/04/27 04:09:37;;;;;;;;;;;;;;;;;;5057104;28;1886;-81
2022/04/27 04:12:03;;;;;;;;;;;;;;;;;;5057405;28;1156;-81
2022/04/27 04:14:28;;;;;;;;;;;;;;;;;;5040937;28;1321;-81
2022/04/27 04:16:53;;;;;;;;;;;;;;;;;;5084781;28;1160;-81
2022/04/27 04:19:20;;;;;;;;;;;;;;;;;;5069402;28;1310;-80
2022/04/27 04:21:45;;;;;;;;;;;;;;;;;;5043251;28;1177;-81
2022/04/27 04:24:10;;;;;;;;;;;;;;;;;;5060162;28;1132;-81
2022/04/27 04:29:31;;;;;;;;;;;;;;;;;;5063593;28;1959;-80
2022/04/27 04:31:56;;;;;;;;;;;;;;;;;;5043741;28;1337;-81
2022/04/27 04:34:25;;;;;;;;;;;;;;;;;;5046185;28;1216;-80
2022/04/27 04:36:51;;;;;;;;;;;;;;;;;;5036614;28;1367;-80
2022/04/27 04:39:16;;;;;;;;;;;;;;;;;;5048140;28;1217;-81
2022/04/27 04:41:41;;;;;;;;;;;;;;;;;;5074036;28;1038;-81
2022/04/27 04:44:07;;;;;;;;;;;;;;;;;;5051983;28;1246;-81
2022/04/27 04:46:32;;;;;;;;;;;;;;;;;;5059622;28;1300;-81
2022/04/27 04:48:57;;;;;;;;;;;;;;;;;;5049602;28;1259;-81
2022/04/27 04:51:24;;;;;;;;;;;;;;;;;;5064538;28;1894;-80
2022/04/27 04:53:49;;;;;;;;;;;;;;;;;;5038390;28;1286;-81
2022/04/27 04:56:14;;;;;;;;;;;;;;;;;;5061997;28;1305;-80
2022/04/27 04:58:40;;;;;;;;;;;;;;;;;;5079473;28;1223;-81
2022/04/27 05:01:05;;;;;;;;;;;;;;;;;;5038856;28;1168;-81
2022/04/27 05:03:36;;;;;;;;;;;;;;;;;;5077835;28;1171;-81
2022/04/27 05:06:02;;;;;;;;;;;;;;;;;;5047266;28;1078;-81
2022/04/27 05:08:28;;;;;;;;;;;;;;;;;;5061470;28;1349;-80
2022/04/27 05:10:54;;;;;;;;;;;;;;;;;;5066774;28;1906;-81
2022/04/27 05:13:19;;;;;;;;;;;;;;;;;;5069044;28;1156;-80
2022/04/27 05:15:44;;;;;;;;;;;;;;;;;;5034643;28;1270;-80
2022/04/27 05:18:09;;;;;;;;;;;;;;;;;;5081300;28;1100;-82
2022/04/27 05:20:37;;;;;;;;;;;;;;;;;;5063707;28;1146;-82
2022/04/27 05:23:02;;;;;;;;;;;;;;;;;;5055495;28;1420;-82
2022/04/27 05:25:30;;;;;;;;;;;;;;;;;;5037181;28;1387;-82
2022/04/27 05:27:55;;;;;;;;;;;;;;;;;;5076566;28;1474;-81
2022/04/27 05:33:04;;;;;;;;;;;;;;;;;;5057431;28;1009;-81
2022/04/27 05:35:30;;;;;;;;;;;;;;;;;;5062190;28;1318;-80
2022/04/27 05:37:55;;;;;;;;;;;;;;;;;;5046487;28;1289;-81
2022/04/27 05:40:20;;;;;;;;;;;;;;;;;;5086033;28;1183;-81
2022/04/27 05:42:47;;;;;;;;;;;;;;;;;;5066592;28;1383;-82
2022/04/27 05:45:12;;;;;;;;;;;;;;;;;;5032940;28;1308;-80
2022/04/27 05:47:38;;;;;;;;;;;;;;;;;;5046781;28;1260;-81
2022/04/27 05:50:04;;;;;;;;;;;;;;;;;;5061546;28;1902;-80
2022/04/27 05:52:30;;;;;;;;;;;;;;;;;;5047608;28;1215;-81
2022/04/27 05:54:55;;;;;;;;;;;;;;;;;;5048064;28;1252;-80
2022/04/27 05:57:20;;;;;;;;;;;;;;;;;;5055183;28;1180;-81
2022/04/27 05:59:47;;;;;;;;;;;;;;;;;;5064596;28;1219;-81
2022/04/27 06:02:12;;;;;;;;;;;;;;;;;;5057368;28;1148;-80
2022/04/27 06:04:37;;;;;;;;;;;;;;;;;;5079025;28;1198;-80
2022/04/27 06:07:04;;;;;;;;;;;;;;;;;;5068310;28;1239;-80
2022/04/27 06:09:30;;;;;;;;;;;;;;;;;;5066342;28;1906;-80
2022/04/27 06:11:56;;;;;;;;;;;;;;;;;;5059579;28;1249;-81
2022/04/27 06:14:22;;;;;;;;;;;;;;;;;;5049426;28;1369;-81
2022/04/27 06:16:47;;;;;;;;;;;;;;;;;;5067221;28;1212;-81
2022/04/27 06:19:13;;;;;;;;;;;;;;;;;;5066942;28;1156;-81
2022/04/27 06:21:38;;;;;;;;;;;;;;;;;;5052073;28;1281;-82
2022/04/27 06:24:05;;;;;;;;;;;;;;;;;;5067800;28;1014;-81
2022/04/27 06:26:33;;;;;;;;;;;;;;;;;;5038204;28;1292;-80
2022/04/27 06:29:01;;;;;;;;;;;;;;;;;;5066135;28;1299;-81
2022/04/27 06:31:26;;;;;;;;;;;;;;;;;;5065548;28;1957;-81
2022/04/27 06:33:52;;;;;;;;;;;;;;;;;;5049746;28;1168;-81
2022/04/27 06:36:17;;;;;;;;;;;;;;;;;;5080879;28;1246;-81
2022/04/27 06:38:42;;;;;;;;;;;;;;;;;;5048921;28;1263;-81
2022/04/27 06:41:08;;;;;;;;;;;;;;;;;;5064744;28;1153;-79
2022/04/27 06:43:39;;;;;;;;;;;;;;;;;;5064821;28;1525;-81
2022/04/27 06:46:04;;;;;;;;;;;;;;;;;;5066234;28;1177;-80
2022/04/27 06:48:30;;;;;;;;;;;;;;;;;;5049132;28;1133;-80
2022/04/27 06:50:55;;;;;;;;;;;;;;;;;;5046230;28;1935;-80
2022/04/27 06:53:20;;;;;;;;;;;;;;;;;;5047742;28;1444;-79
2022/04/27 06:55:47;;;;;;;;;;;;;;;;;;5045889;28;1179;-78
2022/04/27 06:58:13;;;;;;;;;;;;;;;;;;5062106;28;1464;-79
2022/04/27 07:00:38;;;;;;;;;;;;;;;;;;5076818;28;1159;-79
2022/04/27 07:03:06;;;;;;;;;;;;;;;;;;5062320;28;1269;-80
2022/04/27 07:05:32;;;;;;;;;;;;;;;;;;5042975;28;1202;-78
2022/04/27 07:07:58;;;;;;;;;;;;;;;;;;5055496;28;1266;-79
2022/04/27 07:10:24;;;;;;;;;;;;;;;;;;5061337;28;1984;-79
2022/04/27 07:12:49;;;;;;;;;;;;;;;;;;5064769;28;1225;-81
2022/04/27 07:15:15;;;;;;;;;;;;;;;;;;5063461;28;1243;-82
2022/04/27 07:17:40;;;;;;;;;;;;;;;;;;5059452;28;1311;-81
2022/04/27 07:20:05;;;;;;;;;;;;;;;;;;5046491;28;1319;-81
2022/04/27 07:22:31;;;;;;;;;;;;;;;;;;5049277;28;1282;-82
2022/04/27 07:24:56;;;;;;;;;;;;;;;;;;5069706;28;1223;-81
2022/04/27 07:27:21;;;;;;;;;;;;;;;;;;5062915;28;1049;-82
2022/04/27 07:29:47;;;;;;;;;;;;;;;;;;5045177;28;1886;-81
2022/04/27 07:32:12;;;;;;;;;;;;;;;;;;5064361;28;1168;-81
2022/04/27 07:34:40;;;;;;;;;;;;;;;;;;5045104;28;1200;-81
2022/04/27 07:37:06;;;;;;;;;;;;;;;;;;5065452;28;1275;-80
2022/04/27 07:39:31;;;;;;;;;;;;;;;;;;5036174;28;1153;-81
2022/04/27 07:41:57;;;;;;;;;;;;;;;;;;5038203;28;1294;-80
2022/04/27 07:44:22;;;;;;;;;;;;;;;;;;5055048;28;1149;-81
2022/04/27 07:46:47;;;;;;;;;;;;;;;;;;5047332;28;1255;-81
2022/04/27 07:49:19;;;;;;;;;;;;;;;;;;5079289;28;1135;-81
2022/04/27 07:51:45;;;;;;;;;;;;;;;;;;5041018;28;1633;-81
2022/04/27 07:54:11;;;;;;;;;;;;;;;;;;5061804;28;1462;-81
2022/04/27 07:56:36;;;;;;;;;;;;;;;;;;5046677;28;1219;-81
2022/04/27 07:59:01;;;;;;;;;;;;;;;;;;5049541;28;1579;-80
2022/04/27 08:01:26;;;;;;;;;;;;;;;;;;5061714;28;1229;-82
2022/04/27 08:03:51;;;;;;;;;;;;;;;;;;5060105;28;1296;-81
2022/04/27 08:06:18;;;;;;;;;;;;;;;;;;5067484;28;1261;-81
2022/04/27 08:08:43;;;;;;;;;;;;;;;;;;5064589;28;1341;-81
2022/04/27 08:11:10;;;;;;;;;;;;;;;;;;5055736;28;1990;-81
2022/04/27 08:13:45;;;;;;;;;;;;;;;;;;5043595;28;1297;-82
2022/04/27 08:16:13;;;;;;;;;;;;;;;;;;5060059;28;1223;-79
2022/04/27 08:18:38;;;;;;;;;;;;;;;;;;5049592;28;1282;-81
2022/04/27 08:21:16;;;;;;;;;;;;;;;;;;5042639;28;1465;-80
2022/04/27 08:23:45;;;;;;;;;;;;;;;;;;5083213;28;1111;-80
2022/04/27 08:26:13;;;;;;;;;;;;;;;;;;5044541;28;1190;-80
2022/04/27 08:28:39;;;;;;;;;;;;;;;;;;5040805;28;1191;-80
2022/04/27 08:31:04;;;;;;;;;;;;;;;;;;5051283;28;1973;-79
2022/04/27 08:33:29;;;;;;;;;;;;;;;;;;5064527;28;1343;-82
2022/04/27 08:35:57;;;;;;;;;;;;;;;;;;5041925;28;1084;-80
2022/04/27 08:38:23;;;;;;;;;;;;;;;;;;5077894;28;1119;-81
2022/04/27 08:40:48;;;;;;;;;;;;;;;;;;5042422;28;1380;-80
2022/04/27 08:43:14;;;;;;;;;;;;;;;;;;5055751;28;1223;-80
2022/04/27 08:45:42;;;;;;;;;;;;;;;;;;5059415;28;1247;-81
2022/04/27 08:48:09;;;;;;;;;;;;;;;;;;5059872;28;1207;-81
2022/04/27 08:50:35;;;;;;;;;;;;;;;;;;5056383;28;1949;-81
2022/04/27 08:53:00;;;;;;;;;;;;;;;;;;5061348;28;1097;-80
2022/04/27 08:55:28;;;;;;;;;;;;;;;;;;5045029;28;1196;-80
2022/04/27 08:58:14;;;;;;;;;;;;;;;;;;5053531;28;1154;-81
2022/04/27 09:00:40;;;;;;;;;;;;;;;;;;5044388;28;1583;-80
2022/04/27 09:03:24;;;;;;;;;;;;;;;;;;5080007;28;1155;-79
2022/04/27 09:05:52;;;;;;;;;;;;;;;;;;5039289;28;1332;-73
2022/04/27 09:08:18;;;;;;;;;;;;;;;;;;5040324;28;1264;-74
2022/04/27 09:10:48;;;;;;;;;;;;;;;;;;5052220;28;1952;-74
2022/04/27 09:13:13;;;;;;;;;;;;;;;;;;5057399;28;1516;-74
2022/04/27 09:15:39;;;;;;;;;;;;;;;;;;5040462;28;1121;-74
2022/04/27 09:20:58;;;;;;;;;;;;;;;;;;5040673;28;1135;-74
2022/04/27 09:23:37;;;;;;;;;;;;;;;;;;5060621;28;1072;-74
2022/04/27 09:26:19;;;;;;;;;;;;;;;;;;5036073;28;1258;-72
2022/04/27 09:28:55;;;;;;;;;;;;;;;;;;5053849;28;1271;-73
2022/04/27 09:31:27;;;;;;;;;;;;;;;;;;5042491;28;1938;-74
2022/04/27 09:34:27;;;;;;;;;;;;;;;;;;5058155;28;1180;-75
2022/04/27 09:37:13;;;;;;;;;;;;;;;;;;5044024;28;1133;-75
2022/04/27 09:39:39;;;;;;;;;;;;;;;;;;5056455;28;1362;-75
2022/04/27 09:42:05;;;;;;;;;;;;;;;;;;5042950;28;1085;-73
2022/04/27 09:44:31;;;;;;;;;;;;;;;;;;5055737;28;1346;-74
2022/04/27 09:46:57;;;;;;;;;;;;;;;;;;5049651;28;1176;-73
2022/04/27 09:49:24;;;;;;;;;;;;;;;;;;5075165;28;1939;-75
2022/04/27 09:51:52;;;;;;;;;;;;;;;;;;5080391;28;1222;-74
2022/04/27 09:54:25;;;;;;;;;;;;;;;;;;5061331;28;1214;-75
2022/04/27 09:56:56;;;;;;;;;;;;;;;;;;5060237;28;1163;-75
2022/04/27 09:59:31;;;;;;;;;;;;;;;;;;5042896;28;1281;-75
2022/04/27 10:02:00;;;;;;;;;;;;;;;;;;5056884;28;1156;-74
2022/04/27 10:04:28;;;;;;;;;;;;;;;;;;5045979;28;1293;-71
2022/04/27 10:06:58;;;;;;;;;;;;;;;;;;5038715;28;1302;-73
2022/04/27 10:09:25;;;;;;;;;;;;;;;;;;5049259;28;1997;-74
2022/04/27 10:11:55;;;;;;;;;;;;;;;;;;5053364;28;1182;-72
2022/04/27 10:14:22;;;;;;;;;;;;;;;;;;5076874;28;1184;-81
2022/04/27 10:16:48;;;;;;;;;;;;;;;;;;5063083;28;1309;-80
2022/04/27 10:19:15;;;;;;;;;;;;;;;;;;5041553;28;1187;-80
2022/04/27 10:21:56;;;;;;;;;;;;;;;;;;5064205;28;1400;-80
2022/04/27 10:24:33;;;;;;;;;;;;;;;;;;5048817;28;1052;-81
2022/04/27 10:27:15;;;;;;;;;;;;;;;;;;5052998;28;1093;-81
2022/04/27 10:29:44;;;;;;;;;;;;;;;;;;5053115;28;1946;-81
2022/04/27 10:32:09;;;;;;;;;;;;;;;;;;5052851;28;1254;-79
2022/04/27 10:34:35;;;;;;;;;;;;;;;;;;5065394;28;1333;-80
2022/04/27 10:37:03;;;;;;;;;;;;;;;;;;5043605;28;1402;-80
2022/04/27 10:39:32;;;;;;;;;;;;;;;;;;5060915;28;1322;-83
2022/04/27 10:42:03;;;;;;;;;;;;;;;;;;5044907;28;1182;-77
2022/04/27 10:44:47;;;;;;;;;;;;;;;;;;5061986;28;1148;-75
2022/04/27 10:47:15;;;;;;;;;;;;;;;;;;5062650;28;1183;-73
2022/04/27 10:49:41;;;;;;;;;;;;;;;;;;5059093;28;1922;-74
2022/04/27 10:52:07;;;;;;;;;;;;;;;;;;5042851;28;1293;-74
2022/04/27 10:54:34;;;;;;;;;;;;;;;;;;5062020;28;1370;-75
2022/04/27 10:57:25;;;;;;;;;;;;;;;;;;5043155;28;1248;-73
2022/04/27 10:59:59;;;;;;;;;;;;;;;;;;5041070;28;1258;-75
2022/04/27 11:02:34;;;;;;;;;;;;;;;;;;5044079;28;1080;-75
2022/04/27 11:05:03;;;;;;;;;;;;;;;;;;5074237;28;1400;-73
2022/04/27 11:07:28;;;;;;;;;;;;;;;;;;5041003;28;1195;-74
2022/04/27 11:10:17;;;;;;;;;;;;;;;;;;5039361;28;1973;-76
2022/04/27 11:12:46;;;;;;;;;;;;;;;;;;5039006;28;1325;-75
2022/04/27 11:15:14;;;;;;;;;;;;;;;;;;5044050;28;1282;-74
2022/04/27 11:17:40;;;;;;;;;;;;;;;;;;5048168;28;1077;-75
2022/04/27 11:20:06;;;;;;;;;;;;;;;;;;5058486;28;1254;-75
2022/04/27 11:22:40;;;;;;;;;;;;;;;;;;5048669;28;1188;-74
2022/04/27 11:25:14;;;;;;;;;;;;;;;;;;5045986;28;1077;-73
2022/04/27 11:27:41;;;;;;;;;;;;;;;;;;5061444;28;1334;-76
2022/04/27 11:30:08;;;;;;;;;;;;;;;;;;5043309;28;1909;-76
2022/04/27 11:32:38;;;;;;;;;;;;;;;;;;5058743;28;1302;-76
2022/04/27 11:35:03;;;;;;;;;;;;;;;;;;5046400;28;1215;-77
2022/04/27 11:37:30;;;;;;;;;;;;;;;;;;5066894;28;1243;-75
2022/04/27 11:40:11;;;;;;;;;;;;;;;;;;5050704;28;1180;-74
2022/04/27 11:42:40;;;;;;;;;;;;;;;;;;5065172;28;1135;-73
2022/04/27 11:45:06;;;;;;;;;;;;;;;;;;5065538;28;878;-74
2022/04/27 11:47:32;;;;;;;;;;;;;;;;;;5050654;28;1308;-75
2022/04/27 11:50:02;;;;;;;;;;;;;;;;;;5062640;28;1894;-75
2022/04/27 11:52:30;;;;;;;;;;;;;;;;;;5064678;28;1318;-74
2022/04/27 11:55:12;;;;;;;;;;;;;;;;;;5066823;28;997;-75
2022/04/27 11:57:39;;;;;;;;;;;;;;;;;;5066676;28;1432;-75
2022/04/27 12:00:05;;;;;;;;;;;;;;;;;;5063927;28;874;-74
2022/04/27 12:02:32;;;;;;;;;;;;;;;;;;5068956;28;1044;-75
2022/04/27 12:04:58;;;;;;;;;;;;;;;;;;5065039;28;811;-75
2022/04/27 12:07:23;;;;;;;;;;;;;;;;;;5064218;28;1335;-75
2022/04/27 12:09:59;;;;;;;;;;;;;;;;;;5067149;28;1878;-75
2022/04/27 12:12:27;;;;;;;;;;;;;;;;;;5037089;28;1375;-75
2022/04/27 12:14:52;;;;;;;;;;;;;;;;;;5022745;28;1269;-74
2022/04/27 12:17:37;;;;;;;;;;;;;;;;;;5024312;28;1222;-75
2022/04/27 12:20:04;;;;;;;;;;;;;;;;;;5022080;28;1211;-74
2022/04/27 12:22:29;;;;;;;;;;;;;;;;;;5026371;28;1311;-76
2022/04/27 12:24:59;;;;;;;;;;;;;;;;;;5009959;28;1260;-75
2022/04/27 12:27:25;;;;;;;;;;;;;;;;;;5021987;28;1302;-75
2022/04/27 12:30:02;;;;;;;;;;;;;;;;;;5023271;28;1902;-74
2022/04/27 12:32:31;;;;;;;;;;;;;;;;;;5024815;28;1228;-74
2022/04/27 12:37:46;;;;;;;;;;;;;;;;;;5028523;28;1049;-73
2022/04/27 12:40:16;;;;;;;;;;;;;;;;;;5006534;28;1284;-74
2022/04/27 12:42:58;;;;;;;;;;;;;;;;;;5026162;28;1250;-75
2022/04/27 12:45:23;;;;;;;;;;;;;;;;;;5021431;28;1165;-74
2022/04/27 12:47:50;;;;;;;;;;;;;;;;;;5042836;28;1522;-74
2022/04/27 12:50:16;;;;;;;;;;;;;;;;;;5040626;28;1961;-76
2022/04/27 12:52:43;;;;;;;;;;;;;;;;;;5047958;28;772;-75
2022/04/27 12:55:12;;;;;;;;;;;;;;;;;;5044114;28;1213;-74
2022/04/27 12:57:41;;;;;;;;;;;;;;;;;;5043758;28;1194;-75
2022/04/27 13:00:12;;;;;;;;;;;;;;;;;;5041028;28;1219;-76
2022/04/27 13:02:38;;;;;;;;;;;;;;;;;;5044478;28;1400;-76
2022/04/27 13:05:04;;;;;;;;;;;;;;;;;;5029538;28;1347;-74
2022/04/27 13:07:29;;;;;;;;;;;;;;;;;;5048864;28;806;-74
2022/04/27 13:12:39;;;;;;;;;;;;;;;;;;5047766;28;639;-75
2022/04/27 13:15:06;;;;;;;;;;;;;;;;;;5045904;28;1213;-75
2022/04/27 13:17:32;;;;;;;;;;;;;;;;;;5046168;28;1215;-75
2022/04/27 13:19:57;;;;;;;;;;;;;;;;;;5037485;28;1172;-74
2022/04/27 13:22:23;;;;;;;;;;;;;;;;;;5027256;28;1241;-75
2022/04/27 13:24:49;;;;;;;;;;;;;;;;;;5027911;28;1203;-75
2022/04/27 13:27:14;;;;;;;;;;;;;;;;;;5024349;28;1348;-75
2022/04/27 13:29:39;;;;;;;;;;;;;;;;;;5026754;28;1902;-75
2022/04/27 13:32:05;;;;;;;;;;;;;;;;;;5028796;28;811;-75
2022/04/27 13:34:31;;;;;;;;;;;;;;;;;;5007861;28;1224;-74
2022/04/27 13:36:57;;;;;;;;;;;;;;;;;;5027997;28;1141;-75
2022/04/27 13:39:22;;;;;;;;;;;;;;;;;;5028385;28;933;-74
2022/04/27 13:41:47;;;;;;;;;;;;;;;;;;5024786;28;928;-75
2022/04/27 13:44:13;;;;;;;;;;;;;;;;;;5024042;28;776;-74
2022/04/27 13:46:39;;;;;;;;;;;;;;;;;;5027449;28;1110;-75
2022/04/27 13:49:04;;;;;;;;;;;;;;;;;;5028760;28;1161;-75
2022/04/27 13:51:30;;;;;;;;;;;;;;;;;;5005368;28;2312;-75
2022/04/27 13:53:57;;;;;;;;;;;;;;;;;;5025958;28;1113;-75
2022/04/27 13:56:22;;;;;;;;;;;;;;;;;;5025205;28;1074;-75
2022/04/27 13:58:48;;;;;;;;;;;;;;;;;;5024472;28;1255;-74
2022/04/27 14:01:13;;;;;;;;;;;;;;;;;;5028529;28;1187;-74
2022/04/27 14:03:38;;;;;;;;;;;;;;;;;;5045939;28;1304;-75
2022/04/27 14:06:04;;;;;;;;;;;;;;;;;;5028755;28;1268;-75
2022/04/27 14:08:29;;;;;;;;;;;;;;;;;;5027127;28;1210;-76
2022/04/27 14:10:56;;;;;;;;;;;;;;;;;;5044020;28;1890;-75
2022/04/27 14:13:24;;;;;;;;;;;;;;;;;;5045680;28;1357;-75
2022/04/27 14:18:33;;;;;;;;;;;;;;;;;;5046046;28;610;-75
2022/04/27 14:20:59;;;;;;;;;;;;;;;;;;5046495;28;847;-75
2022/04/27 14:23:25;;;;;;;;;;;;;;;;;;5044382;28;1012;-75
2022/04/27 14:25:50;;;;;;;;;;;;;;;;;;5044993;28;1246;-75
2022/04/27 14:28:17;;;;;;;;;;;;;;;;;;5027424;28;1305;-75
2022/04/27 14:30:42;;;;;;;;;;;;;;;;;;5026527;28;1910;-75
2022/04/27 14:33:08;;;;;;;;;;;;;;;;;;5028828;28;1334;-75
2022/04/27 14:35:34;;;;;;;;;;;;;;;;;;5041387;28;1267;-74
2022/04/27 14:38:01;;;;;;;;;;;;;;;;;;5030473;28;1259;-75
2022/04/27 14:40:26;;;;;;;;;;;;;;;;;;5024211;28;1464;-74
2022/04/27 14:42:52;;;;;;;;;;;;;;;;;;5045757;28;1137;-75
2022/04/27 14:45:20;;;;;;;;;;;;;;;;;;5025457;28;1310;-75
2022/04/27 14:47:46;;;;;;;;;;;;;;;;;;5048181;28;1160;-77
2022/04/27 14:50:11;;;;;;;;;;;;;;;;;;5043005;28;1889;-74
2022/04/27 14:52:37;;;;;;;;;;;;;;;;;;5045930;28;1188;-75
2022/04/27 14:55:02;;;;;;;;;;;;;;;;;;5032553;28;1256;-74
2022/04/27 14:57:28;;;;;;;;;;;;;;;;;;5025239;28;1188;-73
2022/04/27 14:59:54;;;;;;;;;;;;;;;;;;5044798;28;1172;-74
2022/04/27 15:02:20;;;;;;;;;;;;;;;;;;5042297;28;1218;-74
2022/04/27 15:04:45;;;;;;;;;;;;;;;;;;5039354;28;1261;-75
2022/04/27 15:07:11;;;;;;;;;;;;;;;;;;5045688;28;1271;-75
2022/04/27 15:09:36;;;;;;;;;;;;;;;;;;5042552;28;1886;-75
2022/04/27 15:12:02;;;;;;;;;;;;;;;;;;5021742;28;1167;-75
2022/04/27 15:14:27;;;;;;;;;;;;;;;;;;5017436;28;1216;-74
2022/04/27 15:16:52;;;;;;;;;;;;;;;;;;5022471;28;1228;-75
2022/04/27 15:19:18;;;;;;;;;;;;;;;;;;5029427;28;1142;-75
2022/04/27 15:24:30;;;;;;;;;;;;;;;;;;5035521;28;1065;-74
2022/04/27 15:26:59;;;;;;;;;;;;;;;;;;5037183;28;1037;-72
2022/04/27 15:29:25;;;;;;;;;;;;;;;;;;5035989;28;1228;-73
2022/04/27 15:31:50;;;;;;;;;;;;;;;;;;5022635;28;1914;-75
2022/04/27 15:34:16;;;;;;;;;;;;;;;;;;5019974;28;1266;-75
2022/04/27 15:36:41;;;;;;;;;;;;;;;;;;5029239;28;1140;-75
2022/04/27 15:39:07;;;;;;;;;;;;;;;;;;5012981;28;1527;-75
2022/04/27 15:41:32;;;;;;;;;;;;;;;;;;5020692;28;1292;-74
2022/04/27 15:43:57;;;;;;;;;;;;;;;;;;5037441;28;1113;-76
2022/04/27 15:46:23;;;;;;;;;;;;;;;;;;5040219;28;1121;-76
2022/04/27 15:48:48;;;;;;;;;;;;;;;;;;5040588;28;1176;-76
2022/04/27 15:51:13;;;;;;;;;;;;;;;;;;5035830;28;1889;-75
2022/04/27 15:53:39;;;;;;;;;;;;;;;;;;5039214;28;1053;-76
2022/04/27 15:56:05;;;;;;;;;;;;;;;;;;5027218;28;1313;-76
2022/04/27 15:58:31;;;;;;;;;;;;;;;;;;5022919;28;1220;-75
2022/04/27 16:01:00;;;;;;;;;;;;;;;;;;5023398;28;1249;-75
2022/04/27 16:03:26;;;;;;;;;;;;;;;;;;5028838;28;1199;-75
2022/04/27 16:05:52;;;;;;;;;;;;;;;;;;5013256;28;1205;-75
2022/04/27 16:08:17;;;;;;;;;;;;;;;;;;5025186;28;1292;-76
2022/04/27 16:10:43;;;;;;;;;;;;;;;;;;5031411;28;1890;-76
2022/04/27 16:13:08;;;;;;;;;;;;;;;;;;5037644;28;1403;-75
2022/04/27 16:15:35;;;;;;;;;;;;;;;;;;5018937;28;1210;-75
2022/04/27 16:18:01;;;;;;;;;;;;;;;;;;5028609;28;1156;-75
2022/04/27 16:20:28;;;;;;;;;;;;;;;;;;5026664;28;1216;-76
2022/04/27 16:23:09;;;;;;;;;;;;;;;;;;5037781;28;1181;-75
2022/04/27 16:25:37;;;;;;;;;;;;;;;;;;5020418;28;1328;-75
2022/04/27 16:28:04;;;;;;;;;;;;;;;;;;5037593;28;965;-74
2022/04/27 16:30:29;;;;;;;;;;;;;;;;;;5038568;28;1911;-75
2022/04/27 16:32:55;;;;;;;;;;;;;;;;;;5044723;28;1346;-75
2022/04/27 16:35:20;;;;;;;;;;;;;;;;;;5042332;28;1279;-75
2022/04/27 16:37:46;;;;;;;;;;;;;;;;;;5024926;28;1140;-75
2022/04/27 16:40:21;;;;;;;;;;;;;;;;;;5011922;28;1258;-74
2022/04/27 16:42:46;;;;;;;;;;;;;;;;;;5012746;28;1155;-75
2022/04/27 16:45:14;;;;;;;;;;;;;;;;;;5012176;28;1301;-74
2022/04/27 16:47:40;;;;;;;;;;;;;;;;;;5038167;28;1148;-76
2022/04/27 16:50:05;;;;;;;;;;;;;;;;;;5040952;28;1950;-75
2022/04/27 16:52:31;;;;;;;;;;;;;;;;;;5024653;28;1151;-74
2022/04/27 16:54:56;;;;;;;;;;;;;;;;;;5028395;28;1184;-75
2022/04/27 16:57:23;;;;;;;;;;;;;;;;;;5033216;28;1161;-75
2022/04/27 16:59:49;;;;;;;;;;;;;;;;;;5027629;28;1207;-73
2022/04/27 17:02:15;;;;;;;;;;;;;;;;;;5049582;28;1255;-75
2022/04/27 17:04:40;;;;;;;;;;;;;;;;;;5026702;28;1429;-76
2022/04/27 17:07:06;;;;;;;;;;;;;;;;;;5048748;28;1157;-75
2022/04/27 17:09:34;;;;;;;;;;;;;;;;;;5030153;28;1278;-74
2022/04/27 17:12:00;;;;;;;;;;;;;;;;;;5029462;28;1894;-76
2022/04/27 17:14:25;;;;;;;;;;;;;;;;;;5031005;28;1228;-76
2022/04/27 17:16:50;;;;;;;;;;;;;;;;;;5043290;28;1149;-75
2022/04/27 17:19:17;;;;;;;;;;;;;;;;;;5048883;28;1290;-75
2022/04/27 17:21:42;;;;;;;;;;;;;;;;;;5032826;28;1454;-76
2022/04/27 17:24:08;;;;;;;;;;;;;;;;;;5048571;28;1085;-76
2022/04/27 17:29:17;;;;;;;;;;;;;;;;;;5033509;28;1092;-75